Time;durP1;ratioP1;P1;durP2;ratioP2;P2;SDS_P1;SDS_P2;PMS_P1;PMS_P2;Temp;Humidity;BMP_temperature;BMP_pressure;BME280_temperature;BME280_humidity;BME280_pressure;Samples;Min_cycle;Max_cycle;Signal;HPM_P1;HPM_P2
2023/12/02 00:00:22;;;;;;;7.90;6.70;;;0.90;99.90;;;;;;5042997;28;20597;-85
2023/12/02 00:02:49;;;;;;;8.03;6.43;;;1.00;99.90;;;;;;5041150;28;20665;-86
2023/12/02 00:05:16;;;;;;;9.30;6.87;;;1.10;99.90;;;;;;5045057;28;20276;-85
2023/12/02 00:07:43;;;;;;;7.73;6.93;;;1.10;99.90;;;;;;5043456;28;20213;-86
2023/12/02 00:10:12;;;;;;;8.80;7.30;;;1.00;99.90;;;;;;5025615;28;20219;-86
2023/12/02 00:12:39;;;;;;;10.00;7.57;;;1.00;99.90;;;;;;5045209;28;20210;-85
2023/12/02 00:15:08;;;;;;;9.30;7.10;;;1.00;99.90;;;;;;5041103;28;20202;-86
2023/12/02 00:17:35;;;;;;;8.53;7.60;;;0.90;99.90;;;;;;5047467;28;20581;-85
2023/12/02 00:20:03;;;;;;;9.00;7.67;;;1.00;99.90;;;;;;5045493;28;20210;-86
2023/12/02 00:22:30;;;;;;;8.33;7.10;;;1.00;99.90;;;;;;5049596;28;20245;-86
2023/12/02 00:24:57;;;;;;;8.87;7.83;;;1.00;99.90;;;;;;5032128;28;20204;-86
2023/12/02 00:27:24;;;;;;;8.70;7.20;;;1.00;99.90;;;;;;5048930;28;20202;-85
2023/12/02 00:29:51;;;;;;;8.50;7.40;;;1.00;99.90;;;;;;5046543;28;20589;-86
2023/12/02 00:32:20;;;;;;;10.30;8.40;;;1.00;99.90;;;;;;5043676;28;20280;-86
2023/12/02 00:34:47;;;;;;;9.57;7.70;;;0.90;99.90;;;;;;5047682;28;20202;-86
2023/12/02 00:37:15;;;;;;;10.40;7.70;;;0.90;99.90;;;;;;5044600;28;20202;-85
2023/12/02 00:39:42;;;;;;;10.10;8.07;;;0.80;99.90;;;;;;5047786;28;20769;-85
2023/12/02 00:42:09;;;;;;;9.70;7.73;;;0.80;99.90;;;;;;5044499;28;20209;-86
2023/12/02 00:44:35;;;;;;;9.73;7.73;;;0.70;99.90;;;;;;5047131;28;20201;-86
2023/12/02 00:47:02;;;;;;;9.30;7.67;;;0.90;99.90;;;;;;5045765;28;20220;-86
2023/12/02 00:49:31;;;;;;;10.03;8.00;;;0.90;99.90;;;;;;5047980;28;20228;-86
2023/12/02 00:51:59;;;;;;;10.07;7.90;;;1.00;99.90;;;;;;5046815;28;20194;-86
2023/12/02 00:54:27;;;;;;;10.73;7.97;;;0.80;99.90;;;;;;5046827;28;20546;-86
2023/12/02 00:56:54;;;;;;;9.50;7.73;;;0.80;99.90;;;;;;5037736;28;20202;-85
2023/12/02 00:59:21;;;;;;;10.13;8.10;;;0.80;99.90;;;;;;5038447;28;20690;-86
2023/12/02 01:01:48;;;;;;;12.57;8.23;;;0.80;99.90;;;;;;5030676;28;20201;-85
2023/12/02 01:04:15;;;;;;;10.10;7.90;;;0.80;99.90;;;;;;5044209;28;20198;-86
2023/12/02 01:06:43;;;;;;;10.40;8.03;;;0.90;99.90;;;;;;5050873;28;20218;-85
2023/12/02 01:09:10;;;;;;;10.23;7.77;;;1.00;99.90;;;;;;5044061;28;20575;-86
2023/12/02 01:11:38;;;;;;;10.40;8.23;;;1.20;99.90;;;;;;5047287;28;20202;-86
2023/12/02 01:14:05;;;;;;;10.10;7.87;;;1.20;99.90;;;;;;5050174;28;20194;-85
2023/12/02 01:16:32;;;;;;;10.90;8.37;;;1.20;99.90;;;;;;5049744;28;20232;-86
2023/12/02 01:18:59;;;;;;;10.97;8.50;;;1.20;99.90;;;;;;5049011;28;20201;-85
2023/12/02 01:21:26;;;;;;;9.93;8.00;;;1.10;99.90;;;;;;5029166;28;20226;-86
2023/12/02 01:23:55;;;;;;;10.30;8.67;;;1.00;99.90;;;;;;5049478;28;20210;-85
2023/12/02 01:26:26;;;;;;;11.33;8.30;;;0.90;99.90;;;;;;5048046;28;20205;-85
2023/12/02 01:28:54;;;;;;;11.33;8.80;;;0.80;99.90;;;;;;5047629;28;20220;-86
2023/12/02 01:31:22;;;;;;;10.50;8.53;;;0.70;99.90;;;;;;5047080;28;20222;-85
2023/12/02 01:36:32;;;;;;;11.37;9.20;;;0.80;99.90;;;;;;5050976;28;20256;-85
2023/12/02 01:39:02;;;;;;;12.67;9.33;;;0.70;99.90;;;;;;5048708;28;20198;-86
2023/12/02 01:41:31;;;;;;;11.10;8.83;;;0.60;99.90;;;;;;5046157;28;20194;-86
2023/12/02 01:43:58;;;;;;;12.33;9.10;;;0.60;99.90;;;;;;5041033;28;20203;-85
2023/12/02 01:46:26;;;;;;;11.20;9.00;;;0.60;99.90;;;;;;5047832;28;20561;-85
2023/12/02 01:48:54;;;;;;;10.80;9.03;;;0.70;99.90;;;;;;5045618;28;20202;-85
2023/12/02 01:51:21;;;;;;;11.33;9.00;;;0.90;99.90;;;;;;5042399;28;20218;-85
2023/12/02 01:53:48;;;;;;;10.87;8.43;;;1.10;99.90;;;;;;5051469;28;20217;-85
2023/12/02 01:56:16;;;;;;;10.03;8.53;;;1.00;99.90;;;;;;5046651;28;20213;-85
2023/12/02 01:58:43;;;;;;;11.60;9.17;;;0.90;99.90;;;;;;5049147;28;20256;-85
2023/12/02 02:01:10;;;;;;;12.60;9.07;;;0.80;99.90;;;;;;5049525;28;20205;-86
2023/12/02 02:03:37;;;;;;;12.37;9.87;;;0.80;99.90;;;;;;5044800;28;20217;-85
2023/12/02 02:06:04;;;;;;;12.80;9.63;;;0.70;99.90;;;;;;5049734;28;20216;-85
2023/12/02 02:08:31;;;;;;;12.80;9.37;;;0.70;99.90;;;;;;5043525;28;20252;-85
2023/12/02 02:11:00;;;;;;;12.67;9.77;;;0.80;99.90;;;;;;5043584;28;20226;-86
2023/12/02 02:13:28;;;;;;;11.60;8.50;;;0.80;99.90;;;;;;5046056;28;20209;-85
2023/12/02 02:15:56;;;;;;;11.90;9.20;;;0.70;99.90;;;;;;5046703;28;20677;-86
2023/12/02 02:18:23;;;;;;;10.33;8.43;;;0.60;99.90;;;;;;5044887;28;20997;-85
2023/12/02 02:20:50;;;;;;;12.27;9.13;;;0.60;99.90;;;;;;5044492;28;20201;-85
2023/12/02 02:23:19;;;;;;;11.43;8.80;;;0.70;99.90;;;;;;5042381;28;20229;-86
2023/12/02 02:25:47;;;;;;;10.03;8.87;;;0.70;99.90;;;;;;5043429;28;20212;-86
2023/12/02 02:28:14;;;;;;;13.23;9.50;;;0.70;99.90;;;;;;5032577;28;20663;-85
2023/12/02 02:30:41;;;;;;;12.93;9.63;;;0.70;99.90;;;;;;5044977;28;20237;-86
2023/12/02 02:33:08;;;;;;;12.30;9.43;;;0.70;99.90;;;;;;5045715;28;20194;-85
2023/12/02 02:35:35;;;;;;;15.67;10.87;;;0.90;99.90;;;;;;5046579;28;20216;-85
2023/12/02 02:38:01;;;;;;;13.33;10.20;;;0.90;99.90;;;;;;5046372;28;20194;-85
2023/12/02 02:40:30;;;;;;;13.93;10.57;;;1.00;99.90;;;;;;5045272;28;20204;-85
2023/12/02 02:42:57;;;;;;;16.30;10.93;;;1.00;99.90;;;;;;5029281;28;20209;-85
2023/12/02 02:45:24;;;;;;;13.53;10.50;;;0.90;99.90;;;;;;5046096;28;20205;-85
2023/12/02 02:47:51;;;;;;;13.37;10.60;;;0.80;99.90;;;;;;5048863;28;20213;-86
2023/12/02 02:50:18;;;;;;;13.30;9.73;;;0.70;99.90;;;;;;5041398;28;20263;-85
2023/12/02 02:52:45;;;;;;;15.83;10.57;;;0.80;99.90;;;;;;5046565;28;20202;-85
2023/12/02 02:55:12;;;;;;;13.37;9.97;;;0.90;99.90;;;;;;5048600;28;20569;-85
2023/12/02 02:57:40;;;;;;;14.13;10.40;;;0.90;99.90;;;;;;5027028;28;20201;-86
2023/12/02 03:00:09;;;;;;;13.73;10.20;;;0.80;99.90;;;;;;5044613;28;20629;-85
2023/12/02 03:02:37;;;;;;;13.97;10.03;;;0.80;99.90;;;;;;5048197;28;20203;-86
2023/12/02 03:05:05;;;;;;;15.30;10.60;;;0.80;99.90;;;;;;5043817;28;20194;-85
2023/12/02 03:07:33;;;;;;;16.37;11.33;;;0.70;99.90;;;;;;5042749;28;20214;-86
2023/12/02 03:10:00;;;;;;;14.00;10.47;;;0.70;99.90;;;;;;5026340;28;20230;-86
2023/12/02 03:12:31;;;;;;;15.73;10.10;;;0.60;99.90;;;;;;5049253;28;20670;-86
2023/12/02 03:14:59;;;;;;;13.27;9.30;;;0.70;99.90;;;;;;5043587;28;20245;-86
2023/12/02 03:17:26;;;;;;;13.10;9.50;;;0.80;99.90;;;;;;5043767;28;20193;-86
2023/12/02 03:19:53;;;;;;;13.37;9.57;;;0.90;99.90;;;;;;5039250;28;20208;-86
2023/12/02 03:22:21;;;;;;;12.03;8.73;;;0.90;99.90;;;;;;5046904;28;20222;-86
2023/12/02 03:24:48;;;;;;;12.27;9.23;;;0.80;99.90;;;;;;5045594;28;20198;-86
2023/12/02 03:27:15;;;;;;;11.50;8.77;;;0.90;99.90;;;;;;5047941;28;20630;-86
2023/12/02 03:29:44;;;;;;;12.93;9.47;;;0.80;99.90;;;;;;5044597;28;20206;-86
2023/12/02 03:32:13;;;;;;;12.00;9.60;;;0.70;99.90;;;;;;5030974;28;20201;-85
2023/12/02 03:34:40;;;;;;;10.93;8.97;;;0.60;99.90;;;;;;5046857;28;20777;-86
2023/12/02 03:37:07;;;;;;;11.50;8.87;;;0.50;99.90;;;;;;5037756;28;20202;-86
2023/12/02 03:39:34;;;;;;;13.47;9.90;;;0.50;99.90;;;;;;5046361;28;20261;-86
2023/12/02 03:42:01;;;;;;;13.70;9.67;;;0.50;99.90;;;;;;5047969;28;20555;-85
2023/12/02 03:44:28;;;;;;;11.30;8.90;;;0.60;99.90;;;;;;5041728;28;20889;-84
2023/12/02 03:46:54;;;;;;;13.20;9.13;;;0.50;99.90;;;;;;5047850;28;20226;-86
2023/12/02 03:49:23;;;;;;;15.23;10.17;;;0.60;99.90;;;;;;5041243;28;20204;-86
2023/12/02 03:51:50;;;;;;;12.40;9.33;;;0.70;99.90;;;;;;5045448;28;20240;-86
2023/12/02 03:54:18;;;;;;;12.97;9.20;;;0.80;99.90;;;;;;5039551;28;20202;-85
2023/12/02 03:56:44;;;;;;;12.20;8.90;;;0.80;99.90;;;;;;5046430;28;20288;-85
2023/12/02 03:59:11;;;;;;;12.67;9.00;;;0.90;99.90;;;;;;5020224;28;20291;-85
2023/12/02 04:01:38;;;;;;;12.73;9.23;;;0.90;99.90;;;;;;5053768;28;20202;-85
2023/12/02 04:04:05;;;;;;;14.90;9.80;;;0.70;99.90;;;;;;5050090;28;20194;-85
2023/12/02 04:06:33;;;;;;;11.57;9.03;;;0.50;99.90;;;;;;5047657;28;20209;-85
2023/12/02 04:09:00;;;;;;;12.10;9.10;;;0.50;99.90;;;;;;5033923;28;20202;-85
2023/12/02 04:11:27;;;;;;;11.90;9.00;;;0.40;99.90;;;;;;5047955;28;20218;-85
2023/12/02 04:13:54;;;;;;;12.93;9.43;;;0.40;99.90;;;;;;5044152;28;20289;-86
2023/12/02 04:16:21;;;;;;;11.53;8.93;;;0.40;99.90;;;;;;5047609;28;20233;-86
2023/12/02 04:18:48;;;;;;;13.50;9.57;;;0.30;99.90;;;;;;5040811;28;20198;-86
2023/12/02 04:21:15;;;;;;;12.83;9.17;;;0.20;99.90;;;;;;5045001;28;20265;-86
2023/12/02 04:23:43;;;;;;;12.07;9.27;;;0.20;99.90;;;;;;5033314;28;20213;-88
2023/12/02 04:26:11;;;;;;;13.00;9.53;;;0.30;99.90;;;;;;5047177;28;20214;-86
2023/12/02 04:28:38;;;;;;;13.43;9.97;;;0.50;99.90;;;;;;5047875;28;20256;-88
2023/12/02 04:31:05;;;;;;;12.87;9.43;;;0.50;99.90;;;;;;5051675;28;20259;-86
2023/12/02 04:33:31;;;;;;;13.27;9.93;;;0.50;99.90;;;;;;5048245;28;20202;-87
2023/12/02 04:35:58;;;;;;;13.57;9.87;;;0.50;99.90;;;;;;5050186;28;20198;-86
2023/12/02 04:38:25;;;;;;;13.30;9.83;;;0.30;99.90;;;;;;5052797;28;20212;-86
2023/12/02 04:40:54;;;;;;;14.40;9.83;;;0.40;99.90;;;;;;5049396;28;20206;-86
2023/12/02 04:43:21;;;;;;;14.97;10.43;;;0.50;99.90;;;;;;5048125;28;20297;-86
2023/12/02 04:45:47;;;;;;;14.30;10.60;;;0.40;99.90;;;;;;5043131;28;20194;-86
2023/12/02 04:48:14;;;;;;;13.10;10.57;;;0.30;99.90;;;;;;5049378;28;20204;-86
2023/12/02 04:50:41;;;;;;;12.73;9.73;;;0.30;99.90;;;;;;5045744;28;20215;-86
2023/12/02 04:53:09;;;;;;;14.47;10.57;;;0.30;99.90;;;;;;5050826;28;20194;-86
2023/12/02 04:55:36;;;;;;;14.27;10.23;;;0.20;99.90;;;;;;5051632;28;20202;-86
2023/12/02 04:58:05;;;;;;;14.37;10.77;;;0.10;99.90;;;;;;5048155;28;20647;-86
2023/12/02 05:00:32;;;;;;;14.17;10.17;;;0.20;99.90;;;;;;5049066;28;20205;-87
2023/12/02 05:02:59;;;;;;;14.83;10.73;;;0.20;99.90;;;;;;5045839;28;20214;-87
2023/12/02 05:05:26;;;;;;;13.53;10.20;;;0.20;99.90;;;;;;5049336;28;20201;-86
2023/12/02 05:07:53;;;;;;;16.47;10.80;;;0.30;99.90;;;;;;5048532;28;20209;-86
2023/12/02 05:10:20;;;;;;;15.43;10.37;;;0.20;99.90;;;;;;5050532;28;20224;-86
2023/12/02 05:12:46;;;;;;;14.70;11.13;;;0.30;99.90;;;;;;5052250;28;20202;-86
2023/12/02 05:15:15;;;;;;;14.30;10.50;;;0.40;99.90;;;;;;5052288;28;20671;-86
2023/12/02 05:17:43;;;;;;;13.87;10.23;;;0.30;99.90;;;;;;5049912;28;20205;-87
2023/12/02 05:20:12;;;;;;;15.20;10.80;;;0.40;99.90;;;;;;5042949;28;20613;-86
2023/12/02 05:22:39;;;;;;;13.20;10.13;;;0.40;99.90;;;;;;5040571;28;20245;-86
2023/12/02 05:25:07;;;;;;;15.90;10.60;;;0.40;99.90;;;;;;5040419;28;20674;-86
2023/12/02 05:27:34;;;;;;;15.37;10.83;;;0.60;99.90;;;;;;5042438;28;21143;-86
2023/12/02 05:30:01;;;;;;;16.57;10.60;;;0.70;99.90;;;;;;5050071;28;20252;-87
2023/12/02 05:32:29;;;;;;;15.97;11.83;;;0.60;99.90;;;;;;5045142;28;20226;-87
2023/12/02 05:34:56;;;;;;;15.67;11.87;;;0.40;99.90;;;;;;5048249;28;20259;-87
2023/12/02 05:37:22;;;;;;;17.30;11.73;;;0.20;99.90;;;;;;5048641;28;20225;-86
2023/12/02 05:39:49;;;;;;;16.50;11.17;;;0.10;99.90;;;;;;5047921;28;20236;-86
2023/12/02 05:42:16;;;;;;;18.10;11.57;;;0.10;99.90;;;;;;5048843;28;20204;-86
2023/12/02 05:44:43;;;;;;;17.37;11.43;;;0.30;99.90;;;;;;5051021;28;20658;-87
2023/12/02 05:47:10;;;;;;;15.97;10.93;;;0.50;99.90;;;;;;5026797;28;20248;-86
2023/12/02 05:49:39;;;;;;;17.73;12.20;;;0.30;99.90;;;;;;5047425;28;20206;-87
2023/12/02 05:52:06;;;;;;;16.53;11.53;;;0.20;99.90;;;;;;5048921;28;20226;-87
2023/12/02 05:54:34;;;;;;;16.90;11.40;;;0.20;99.90;;;;;;5048673;28;20198;-87
2023/12/02 05:57:01;;;;;;;15.37;10.27;;;0.40;99.90;;;;;;5047661;28;20248;-86
2023/12/02 05:59:28;;;;;;;16.73;11.47;;;0.50;99.90;;;;;;5049758;28;20198;-86
2023/12/02 06:01:55;;;;;;;16.27;11.97;;;0.40;99.90;;;;;;5040865;28;20289;-87
2023/12/02 06:04:21;;;;;;;18.90;11.57;;;0.30;99.90;;;;;;5044225;28;20252;-89
2023/12/02 06:06:50;;;;;;;16.07;11.17;;;0.50;99.90;;;;;;5041379;28;20655;-86
2023/12/02 06:09:17;;;;;;;15.83;11.13;;;0.60;99.90;;;;;;5048086;28;20196;-87
2023/12/02 06:11:44;;;;;;;15.50;10.67;;;0.70;99.90;;;;;;5044444;28;20306;-87
2023/12/02 06:14:11;;;;;;;17.47;12.00;;;0.80;99.80;;;;;;5040551;28;20206;-88
2023/12/02 06:16:37;;;;;;;18.13;12.13;;;0.70;99.80;;;;;;5049437;28;20267;-88
2023/12/02 06:19:04;;;;;;;18.07;11.97;;;0.60;99.50;;;;;;5045012;28;20190;-87
2023/12/02 06:21:31;;;;;;;18.30;12.17;;;0.50;99.90;;;;;;5049652;28;20228;-87
2023/12/02 06:23:59;;;;;;;16.57;11.83;;;0.60;99.90;;;;;;5042846;28;20232;-87
2023/12/02 06:26:26;;;;;;;16.97;11.40;;;0.60;99.90;;;;;;5044604;28;20688;-87
2023/12/02 06:28:53;;;;;;;16.90;11.67;;;0.40;99.90;;;;;;5045553;28;20665;-87
2023/12/02 06:31:20;;;;;;;16.93;11.67;;;0.40;99.90;;;;;;5040859;28;20714;-89
2023/12/02 06:33:47;;;;;;;17.07;12.07;;;0.30;99.90;;;;;;5039772;28;20194;-89
2023/12/02 06:36:14;;;;;;;17.13;11.63;;;0.30;99.90;;;;;;5045006;28;20671;-88
2023/12/02 06:38:41;;;;;;;15.57;10.67;;;0.50;99.90;;;;;;5044970;28;20255;-88
2023/12/02 06:41:10;;;;;;;15.77;11.30;;;0.50;99.90;;;;;;5046202;28;20197;-88
2023/12/02 06:43:37;;;;;;;15.73;11.10;;;0.50;99.90;;;;;;5026835;28;20198;-87
2023/12/02 06:46:04;;;;;;;16.83;11.07;;;0.60;99.90;;;;;;5046759;28;20293;-88
2023/12/02 06:48:31;;;;;;;15.20;11.17;;;0.50;99.90;;;;;;5044428;28;20285;-87
2023/12/02 06:50:58;;;;;;;17.33;11.37;;;0.40;99.90;;;;;;5049448;28;20198;-88
2023/12/02 06:53:25;;;;;;;19.93;12.30;;;0.40;99.90;;;;;;5044372;28;20244;-88
2023/12/02 06:55:52;;;;;;;18.30;11.70;;;0.20;99.90;;;;;;5046233;28;20197;-87
2023/12/02 06:58:20;;;;;;;17.13;11.53;;;0.10;99.90;;;;;;5045843;28;20647;-87
2023/12/02 07:00:47;;;;;;;15.87;10.90;;;0.10;99.90;;;;;;5049577;28;20205;-88
2023/12/02 07:03:14;;;;;;;15.50;11.10;;;0.20;99.90;;;;;;5046579;28;20190;-88
2023/12/02 07:05:40;;;;;;;16.67;10.83;;;0.10;99.90;;;;;;5045690;28;20201;-89
2023/12/02 07:08:08;;;;;;;16.83;10.87;;;0.20;99.90;;;;;;5046394;28;20736;-88
2023/12/02 07:10:34;;;;;;;16.43;10.97;;;0.20;99.90;;;;;;5047212;28;20631;-88
2023/12/02 07:13:01;;;;;;;14.43;10.47;;;0.30;99.90;;;;;;5048085;28;20234;-88
2023/12/02 07:15:29;;;;;;;17.13;11.40;;;0.30;99.90;;;;;;5047817;28;20267;-88
2023/12/02 07:17:56;;;;;;;16.77;11.20;;;0.20;99.90;;;;;;5042343;28;20203;-88
2023/12/02 07:20:23;;;;;;;16.67;10.83;;;0.40;99.90;;;;;;5048986;28;20212;-88
2023/12/02 07:22:50;;;;;;;16.57;10.87;;;0.40;99.90;;;;;;5044343;28;20213;-87
2023/12/02 07:25:17;;;;;;;14.63;10.17;;;0.50;99.90;;;;;;5039982;28;20198;-87
2023/12/02 07:27:44;;;;;;;16.27;10.97;;;0.40;99.80;;;;;;5044195;28;20194;-88
2023/12/02 07:30:11;;;;;;;15.87;10.50;;;0.60;99.80;;;;;;5029100;28;20567;-87
2023/12/02 07:32:39;;;;;;;15.23;10.30;;;0.60;99.30;;;;;;5049663;28;20218;-87
2023/12/02 07:35:07;;;;;;;15.83;10.73;;;0.50;99.30;;;;;;5042198;28;20256;-88
2023/12/02 07:37:34;;;;;;;14.13;10.10;;;0.40;99.50;;;;;;5042863;28;20209;-88
2023/12/02 07:40:01;;;;;;;13.53;9.77;;;0.40;99.60;;;;;;5047282;28;20677;-88
2023/12/02 07:42:28;;;;;;;14.23;10.43;;;0.40;99.70;;;;;;5045313;28;20580;-88
2023/12/02 07:44:55;;;;;;;15.47;10.83;;;0.40;99.80;;;;;;5045895;28;20290;-89
2023/12/02 07:47:23;;;;;;;13.77;10.00;;;0.40;99.90;;;;;;5039871;28;20593;-87
2023/12/02 07:49:51;;;;;;;14.20;9.80;;;0.60;99.90;;;;;;5048093;28;20213;-87
2023/12/02 07:52:18;;;;;;;13.97;9.93;;;0.60;99.90;;;;;;5045052;28;20244;-87
2023/12/02 07:54:45;;;;;;;13.97;9.80;;;0.60;99.30;;;;;;5038848;28;20199;-87
2023/12/02 07:57:12;;;;;;;14.67;9.93;;;0.70;99.90;;;;;;5044454;28;20196;-90
2023/12/02 07:59:38;;;;;;;14.70;10.20;;;0.80;99.40;;;;;;5040022;28;20202;-88
2023/12/02 08:02:06;;;;;;;14.53;10.07;;;0.80;99.40;;;;;;5042524;28;20201;-85
2023/12/02 08:04:35;;;;;;;14.30;10.10;;;0.60;98.80;;;;;;5040972;28;20698;-86
2023/12/02 08:07:04;;;;;;;14.97;10.40;;;0.50;99.30;;;;;;5039834;28;20217;-86
2023/12/02 08:09:30;;;;;;;13.10;9.53;;;0.50;99.30;;;;;;5042964;28;20202;-87
2023/12/02 08:11:57;;;;;;;15.40;9.80;;;0.60;99.30;;;;;;5045734;28;20231;-86
2023/12/02 08:14:24;;;;;;;13.67;9.57;;;0.60;99.30;;;;;;5045661;28;20617;-87
2023/12/02 08:16:51;;;;;;;13.97;10.13;;;0.60;99.60;;;;;;5045889;28;20615;-86
2023/12/02 08:19:18;;;;;;;15.30;10.27;;;0.50;99.30;;;;;;5043090;28;20204;-86
2023/12/02 08:21:45;;;;;;;15.17;9.03;;;0.50;99.70;;;;;;5046902;28;20221;-86
2023/12/02 08:24:13;;;;;;;13.17;9.80;;;0.30;99.20;;;;;;5038453;28;20239;-86
2023/12/02 08:26:40;;;;;;;13.70;9.00;;;0.40;99.60;;;;;;5043686;28;20203;-88
2023/12/02 08:29:07;;;;;;;13.73;9.47;;;0.50;99.70;;;;;;5047417;28;20213;-88
2023/12/02 08:31:34;;;;;;;12.27;8.87;;;0.50;99.30;;;;;;5048243;28;20205;-87
2023/12/02 08:34:01;;;;;;;14.70;9.60;;;0.50;99.30;;;;;;5042705;28;20202;-87
2023/12/02 08:36:28;;;;;;;13.67;9.60;;;0.50;99.30;;;;;;5047986;28;20209;-86
2023/12/02 08:38:55;;;;;;;14.23;9.50;;;0.50;99.40;;;;;;5049950;28;20250;-86
2023/12/02 08:41:25;;;;;;;13.13;8.83;;;0.60;99.30;;;;;;5052356;28;20194;-86
2023/12/02 08:43:52;;;;;;;14.03;9.73;;;0.70;99.30;;;;;;5044339;28;20219;-86
2023/12/02 08:46:19;;;;;;;12.77;8.67;;;0.70;98.80;;;;;;5045335;28;20230;-86
2023/12/02 08:48:47;;;;;;;12.47;8.83;;;0.70;99.00;;;;;;5046708;28;20277;-86
2023/12/02 08:51:14;;;;;;;12.63;8.50;;;0.80;98.60;;;;;;5052408;28;20198;-87
2023/12/02 08:53:40;;;;;;;12.30;8.87;;;0.80;98.00;;;;;;5047727;28;20249;-87
2023/12/02 08:56:08;;;;;;;12.63;8.77;;;0.80;98.10;;;;;;5049013;28;20244;-87
2023/12/02 08:58:36;;;;;;;13.07;8.70;;;0.60;98.20;;;;;;5043605;28;20545;-89
2023/12/02 09:01:05;;;;;;;14.00;9.70;;;0.60;98.10;;;;;;5047537;28;20211;-85
2023/12/02 09:03:31;;;;;;;12.90;9.13;;;0.40;98.90;;;;;;5043141;28;20205;-85
2023/12/02 09:05:58;;;;;;;14.53;9.47;;;0.40;98.90;;;;;;5047625;28;20217;-84
2023/12/02 09:08:25;;;;;;;12.17;8.60;;;0.50;98.40;;;;;;5047946;28;20217;-83
2023/12/02 09:10:52;;;;;;;13.30;9.03;;;0.60;98.70;;;;;;5049064;28;20642;-84
2023/12/02 09:13:44;;;;;;;13.57;9.10;;;0.50;98.40;;;;;;5044129;28;20915;-85
2023/12/02 09:16:11;;;;;;;14.57;9.10;;;0.60;98.70;;;;;;5041995;28;20194;-86
2023/12/02 09:18:39;;;;;;;14.13;9.37;;;0.70;98.50;;;;;;5040680;28;20202;-85
2023/12/02 09:21:29;;;;;;;12.47;9.10;;;0.60;98.40;;;;;;5034555;28;20202;-84
2023/12/02 09:24:00;;;;;;;13.50;9.77;;;0.60;98.50;;;;;;5041284;28;20289;-83
2023/12/02 09:26:28;;;;;;;14.67;9.90;;;0.50;98.90;;;;;;5043888;28;20209;-86
2023/12/02 09:28:57;;;;;;;15.33;10.33;;;0.50;98.50;;;;;;5044634;28;20194;-84
2023/12/02 09:31:25;;;;;;;13.73;9.70;;;0.60;98.60;;;;;;5043799;28;20202;-83
2023/12/02 09:33:58;;;;;;;14.73;9.93;;;0.60;97.90;;;;;;5047505;28;20218;-83
2023/12/02 09:36:33;;;;;;;15.23;9.83;;;0.60;98.30;;;;;;5044313;28;20210;-84
2023/12/02 09:39:40;;;;;;;15.40;9.73;;;0.50;98.00;;;;;;5042783;28;20264;-84
2023/12/02 09:42:07;;;;;;;422.53;249.90;;;0.70;98.10;;;;;;5043315;28;20220;-84
2023/12/02 09:44:44;;;;;;;27.33;17.37;;;1.00;99.90;;;;;;5048653;28;20857;-83
2023/12/02 09:47:18;;;;;;;14.33;10.60;;;1.40;99.90;;;;;;5045545;28;20206;-84
2023/12/02 09:50:05;;;;;;;15.50;10.33;;;0.90;96.90;;;;;;5044436;28;20198;-85
2023/12/02 09:52:48;;;;;;;13.80;9.77;;;1.00;97.40;;;;;;5048765;28;20730;-85
2023/12/02 09:55:19;;;;;;;14.90;10.23;;;0.70;96.90;;;;;;5045732;28;20205;-85
2023/12/02 09:57:52;;;;;;;17.07;10.60;;;0.60;96.70;;;;;;5044291;28;20201;-81
2023/12/02 10:00:40;;;;;;;14.83;10.07;;;0.40;96.70;;;;;;5046655;28;20199;-84
2023/12/02 10:03:28;;;;;;;17.43;10.97;;;0.20;98.10;;;;;;5045614;28;20559;-84
2023/12/02 10:06:05;;;;;;;17.47;10.70;;;0.30;98.70;;;;;;5037921;28;20198;-84
2023/12/02 10:08:47;;;;;;;14.87;10.50;;;0.40;98.30;;;;;;5037130;28;20571;-84
2023/12/02 10:11:22;;;;;;;14.57;10.20;;;0.40;97.90;;;;;;5046320;28;20221;-83
2023/12/02 10:13:55;;;;;;;15.43;11.17;;;0.50;97.70;;;;;;5041284;28;20217;-84
2023/12/02 10:16:29;;;;;;;15.70;10.67;;;0.40;97.50;;;;;;5041045;28;20207;-84
2023/12/02 10:19:00;;;;;;;14.40;10.37;;;0.20;97.60;;;;;;5040318;28;20209;-84
2023/12/02 10:21:30;;;;;;;14.67;10.37;;;0.00;97.50;;;;;;5049388;28;20229;-83
2023/12/02 10:24:04;;;;;;;18.13;11.07;;;0.10;98.10;;;;;;5043569;28;20202;-83
2023/12/02 10:26:39;;;;;;;13.90;9.67;;;0.00;98.10;;;;;;5040722;28;20741;-83
2023/12/02 10:29:17;;;;;;;17.33;10.83;;;-0.20;98.20;;;;;;5042689;28;20289;-84
2023/12/02 10:31:57;;;;;;;16.93;10.17;;;0.00;98.30;;;;;;5044144;28;20222;-83
2023/12/02 10:34:29;;;;;;;16.27;10.47;;;0.20;98.10;;;;;;5042367;28;20212;-84
2023/12/02 10:37:00;;;;;;;15.73;10.20;;;0.30;98.10;;;;;;5040449;28;20205;-84
2023/12/02 10:39:35;;;;;;;16.40;10.90;;;0.30;98.00;;;;;;5041740;28;20296;-86
2023/12/02 10:42:04;;;;;;;16.23;10.10;;;0.20;98.00;;;;;;5041012;28;20193;-86
2023/12/02 10:44:32;;;;;;;16.47;10.63;;;0.20;98.30;;;;;;5038370;28;20209;-86
2023/12/02 10:47:02;;;;;;;16.40;10.90;;;0.10;98.30;;;;;;5045491;28;20205;-84
2023/12/02 10:49:30;;;;;;;14.07;10.07;;;0.20;98.20;;;;;;5041708;28;20217;-84
2023/12/02 10:51:59;;;;;;;17.10;10.97;;;0.40;97.70;;;;;;5037171;28;20313;-83
2023/12/02 10:54:29;;;;;;;14.63;10.30;;;0.30;97.10;;;;;;5040909;28;20543;-85
2023/12/02 10:57:06;;;;;;;16.77;10.87;;;0.20;97.40;;;;;;5037584;28;20208;-85
2023/12/02 10:59:35;;;;;;;15.50;10.63;;;0.40;97.40;;;;;;5036360;28;20197;-85
2023/12/02 11:02:21;;;;;;;14.70;10.13;;;0.40;97.50;;;;;;5041872;28;20204;-85
2023/12/02 11:04:53;;;;;;;14.70;9.70;;;0.30;96.90;;;;;;5038417;28;20201;-86
2023/12/02 11:07:24;;;;;;;13.60;9.23;;;0.30;97.10;;;;;;5037817;28;20218;-85
2023/12/02 11:09:56;;;;;;;14.43;9.90;;;0.30;96.70;;;;;;5042972;28;20198;-83
2023/12/02 11:12:28;;;;;;;13.33;9.57;;;0.40;96.70;;;;;;5044333;28;20194;-85
2023/12/02 11:15:03;;;;;;;14.83;10.37;;;0.30;96.50;;;;;;5043817;28;20198;-85
2023/12/02 11:17:38;;;;;;;14.63;9.90;;;0.40;96.50;;;;;;5045514;28;20198;-86
2023/12/02 11:20:16;;;;;;;14.33;9.87;;;0.50;96.70;;;;;;5047318;28;20203;-84
2023/12/02 11:23:04;;;;;;;13.90;9.50;;;0.30;96.60;;;;;;5048749;28;20252;-86
2023/12/02 11:25:41;;;;;;;14.23;10.10;;;0.40;96.80;;;;;;5041577;28;20570;-85
2023/12/02 11:28:26;;;;;;;15.13;9.90;;;0.40;96.30;;;;;;5033612;28;20183;-85
2023/12/02 11:31:06;;;;;;;14.27;10.03;;;0.40;96.70;;;;;;5047188;28;20284;-84
2023/12/02 11:33:43;;;;;;;17.73;10.20;;;0.40;96.70;;;;;;5041313;28;20711;-85
2023/12/02 11:36:15;;;;;;;15.37;9.57;;;0.10;96.80;;;;;;5049931;28;20327;-85
2023/12/02 11:38:55;;;;;;;14.33;9.60;;;0.20;97.10;;;;;;5042726;28;20197;-85
2023/12/02 11:41:25;;;;;;;13.77;9.20;;;0.10;97.00;;;;;;5047273;28;20628;-86
2023/12/02 11:44:05;;;;;;;15.40;10.20;;;0.10;97.30;;;;;;5043897;28;20206;-85
2023/12/02 11:46:38;;;;;;;14.97;9.50;;;0.30;96.80;;;;;;5048246;28;20204;-85
2023/12/02 11:49:21;;;;;;;14.40;9.43;;;0.40;96.70;;;;;;5046908;28;20217;-85
2023/12/02 11:51:56;;;;;;;14.83;10.13;;;0.30;96.60;;;;;;5043442;28;20605;-84
2023/12/02 11:54:32;;;;;;;14.23;10.10;;;0.50;96.90;;;;;;5048846;28;20250;-85
2023/12/02 11:57:15;;;;;;;13.80;9.40;;;0.60;96.40;;;;;;5044232;28;20204;-85
2023/12/02 11:59:56;;;;;;;14.47;9.53;;;0.60;96.30;;;;;;5043431;28;20204;-86
2023/12/02 12:02:35;;;;;;;16.87;10.07;;;0.60;95.80;;;;;;5044354;28;20201;-85
2023/12/02 12:05:25;;;;;;;13.43;8.97;;;0.50;96.00;;;;;;5044894;28;20526;-86
2023/12/02 12:08:06;;;;;;;13.90;9.93;;;0.60;96.30;;;;;;5043205;28;20553;-86
2023/12/02 12:10:36;;;;;;;13.70;9.77;;;0.40;95.70;;;;;;5039608;28;20545;-85
2023/12/02 12:13:04;;;;;;;13.73;9.47;;;0.40;96.60;;;;;;5039051;28;20222;-84
2023/12/02 12:15:31;;;;;;;11.57;8.93;;;0.50;96.50;;;;;;5055544;28;20209;-85
2023/12/02 12:17:58;;;;;;;14.30;9.30;;;0.50;96.00;;;;;;5059014;28;20266;-87
2023/12/02 12:20:29;;;;;;;12.60;8.80;;;0.50;96.00;;;;;;5065341;28;20194;-86
2023/12/02 12:22:56;;;;;;;12.93;8.80;;;0.40;95.90;;;;;;5051410;28;20656;-84
2023/12/02 12:25:28;;;;;;;13.90;9.47;;;0.30;96.00;;;;;;5048973;28;20209;-86
2023/12/02 12:27:55;;;;;;;12.50;8.67;;;0.20;96.50;;;;;;5054839;28;20190;-85
2023/12/02 12:30:22;;;;;;;14.13;9.33;;;0.10;96.80;;;;;;5046074;28;20198;-85
2023/12/02 12:32:50;;;;;;;13.80;9.63;;;0.10;97.10;;;;;;5049262;28;20202;-85
2023/12/02 12:35:17;;;;;;;14.07;9.60;;;0.00;97.20;;;;;;5045807;28;20563;-85
2023/12/02 12:37:46;;;;;;;13.40;9.73;;;0.00;97.70;;;;;;5049028;28;20220;-85
2023/12/02 12:40:14;;;;;;;13.97;9.37;;;-0.10;97.30;;;;;;5052331;28;20205;-85
2023/12/02 12:42:47;;;;;;;15.47;9.43;;;-0.10;97.70;;;;;;5047446;28;20210;-86
2023/12/02 12:45:14;;;;;;;16.13;10.37;;;0.10;97.90;;;;;;5039699;28;20198;-85
2023/12/02 12:47:42;;;;;;;15.77;10.10;;;0.10;97.60;;;;;;5048197;28;20347;-87
2023/12/02 12:50:12;;;;;;;14.57;9.77;;;0.10;98.10;;;;;;5052696;28;20199;-84
2023/12/02 12:52:44;;;;;;;14.33;9.53;;;0.30;97.90;;;;;;5044999;28;20563;-84
2023/12/02 12:55:18;;;;;;;15.73;10.77;;;0.30;97.30;;;;;;5055036;28;20205;-86